sensor_id;sensor_type;location;lat;lon;timestamp;P1;durP1;ratioP1;P2;durP2;ratioP2
65583;SDS011;73032;43.592;1.458;2023-12-20T00:01:57;10.07;;;5.28;;
65583;SDS011;73032;43.592;1.458;2023-12-20T00:04:24;9.02;;;5.68;;
65583;SDS011;73032;43.592;1.458;2023-12-20T00:06:50;19.65;;;6.05;;
65583;SDS011;73032;43.592;1.458;2023-12-20T00:09:18;8.98;;;5.60;;
65583;SDS011;73032;43.592;1.458;2023-12-20T00:11:45;13.75;;;6.65;;
65583;SDS011;73032;43.592;1.458;2023-12-20T00:14:12;8.70;;;5.25;;
65583;SDS011;73032;43.592;1.458;2023-12-20T00:16:39;9.55;;;4.90;;
65583;SDS011;73032;43.592;1.458;2023-12-20T00:19:05;8.63;;;4.85;;
65583;SDS011;73032;43.592;1.458;2023-12-20T00:21:32;9.10;;;5.28;;
65583;SDS011;73032;43.592;1.458;2023-12-20T00:23:59;11.20;;;5.70;;
65583;SDS011;73032;43.592;1.458;2023-12-20T00:26:26;9.50;;;5.30;;
65583;SDS011;73032;43.592;1.458;2023-12-20T00:28:54;10.70;;;6.07;;
65583;SDS011;73032;43.592;1.458;2023-12-20T00:31:21;9.07;;;5.00;;
65583;SDS011;73032;43.592;1.458;2023-12-20T00:33:47;9.15;;;4.40;;
65583;SDS011;73032;43.592;1.458;2023-12-20T00:36:14;8.48;;;4.53;;
65583;SDS011;73032;43.592;1.458;2023-12-20T00:38:41;9.10;;;5.18;;
65583;SDS011;73032;43.592;1.458;2023-12-20T00:41:08;8.38;;;5.18;;
65583;SDS011;73032;43.592;1.458;2023-12-20T00:43:34;9.50;;;5.10;;
65583;SDS011;73032;43.592;1.458;2023-12-20T00:46:01;7.50;;;4.38;;
65583;SDS011;73032;43.592;1.458;2023-12-20T00:48:28;11.02;;;5.50;;
65583;SDS011;73032;43.592;1.458;2023-12-20T00:50:57;7.53;;;4.90;;
65583;SDS011;73032;43.592;1.458;2023-12-20T00:53:23;6.53;;;4.45;;
65583;SDS011;73032;43.592;1.458;2023-12-20T00:55:50;8.48;;;4.82;;
65583;SDS011;73032;43.592;1.458;2023-12-20T00:58:17;8.93;;;5.00;;
65583;SDS011;73032;43.592;1.458;2023-12-20T01:00:43;7.65;;;4.50;;
65583;SDS011;73032;43.592;1.458;2023-12-20T01:03:10;9.23;;;4.93;;
65583;SDS011;73032;43.592;1.458;2023-12-20T01:05:37;7.43;;;4.60;;
65583;SDS011;73032;43.592;1.458;2023-12-20T01:08:04;8.77;;;5.18;;
65583;SDS011;73032;43.592;1.458;2023-12-20T01:10:31;10.00;;;5.43;;
65583;SDS011;73032;43.592;1.458;2023-12-20T01:13:00;10.00;;;5.68;;
65583;SDS011;73032;43.592;1.458;2023-12-20T01:15:27;11.50;;;5.72;;
65583;SDS011;73032;43.592;1.458;2023-12-20T01:17:54;9.90;;;5.45;;
65583;SDS011;73032;43.592;1.458;2023-12-20T01:20:23;8.60;;;5.20;;
65583;SDS011;73032;43.592;1.458;2023-12-20T01:22:50;9.20;;;5.40;;
65583;SDS011;73032;43.592;1.458;2023-12-20T01:25:16;8.05;;;4.85;;
65583;SDS011;73032;43.592;1.458;2023-12-20T01:27:43;8.80;;;5.00;;
65583;SDS011;73032;43.592;1.458;2023-12-20T01:30:10;6.70;;;4.57;;
65583;SDS011;73032;43.592;1.458;2023-12-20T01:32:37;7.75;;;4.70;;
65583;SDS011;73032;43.592;1.458;2023-12-20T01:35:04;8.90;;;4.75;;
65583;SDS011;73032;43.592;1.458;2023-12-20T01:37:31;7.80;;;4.50;;
65583;SDS011;73032;43.592;1.458;2023-12-20T01:39:58;7.57;;;4.53;;
65583;SDS011;73032;43.592;1.458;2023-12-20T01:42:25;8.30;;;4.20;;
65583;SDS011;73032;43.592;1.458;2023-12-20T01:44:52;8.63;;;5.10;;
65583;SDS011;73032;43.592;1.458;2023-12-20T01:47:18;7.25;;;3.92;;
65583;SDS011;73032;43.592;1.458;2023-12-20T01:49:45;6.40;;;3.92;;
65583;SDS011;73032;43.592;1.458;2023-12-20T01:52:12;7.97;;;4.68;;
65583;SDS011;73032;43.592;1.458;2023-12-20T01:54:39;7.70;;;4.28;;
65583;SDS011;73032;43.592;1.458;2023-12-20T01:57:08;5.85;;;4.00;;
65583;SDS011;73032;43.592;1.458;2023-12-20T01:59:35;6.63;;;4.30;;
65583;SDS011;73032;43.592;1.458;2023-12-20T02:02:03;7.22;;;4.25;;
65583;SDS011;73032;43.592;1.458;2023-12-20T02:04:30;7.10;;;3.83;;
65583;SDS011;73032;43.592;1.458;2023-12-20T02:06:57;5.70;;;3.53;;
65583;SDS011;73032;43.592;1.458;2023-12-20T02:09:26;5.60;;;3.53;;
65583;SDS011;73032;43.592;1.458;2023-12-20T02:11:54;5.65;;;3.55;;
65583;SDS011;73032;43.592;1.458;2023-12-20T02:14:20;5.85;;;3.65;;
65583;SDS011;73032;43.592;1.458;2023-12-20T02:16:47;7.97;;;4.82;;
65583;SDS011;73032;43.592;1.458;2023-12-20T02:19:14;6.63;;;4.22;;
65583;SDS011;73032;43.592;1.458;2023-12-20T02:21:42;7.13;;;3.38;;
65583;SDS011;73032;43.592;1.458;2023-12-20T02:24:09;6.57;;;4.10;;
65583;SDS011;73032;43.592;1.458;2023-12-20T02:26:35;6.65;;;3.55;;
65583;SDS011;73032;43.592;1.458;2023-12-20T02:29:02;8.65;;;4.88;;
65583;SDS011;73032;43.592;1.458;2023-12-20T02:31:29;8.77;;;5.10;;
65583;SDS011;73032;43.592;1.458;2023-12-20T02:33:55;6.40;;;3.70;;
65583;SDS011;73032;43.592;1.458;2023-12-20T02:36:22;6.07;;;3.83;;
65583;SDS011;73032;43.592;1.458;2023-12-20T02:38:49;5.57;;;3.58;;
65583;SDS011;73032;43.592;1.458;2023-12-20T02:41:17;7.60;;;4.10;;
65583;SDS011;73032;43.592;1.458;2023-12-20T02:43:44;6.55;;;4.15;;
65583;SDS011;73032;43.592;1.458;2023-12-20T02:46:11;6.97;;;4.22;;
65583;SDS011;73032;43.592;1.458;2023-12-20T02:48:40;7.13;;;4.03;;
65583;SDS011;73032;43.592;1.458;2023-12-20T02:51:06;6.03;;;3.72;;
65583;SDS011;73032;43.592;1.458;2023-12-20T02:53:33;8.05;;;4.47;;
65583;SDS011;73032;43.592;1.458;2023-12-20T02:56:00;8.52;;;4.53;;
65583;SDS011;73032;43.592;1.458;2023-12-20T02:58:26;5.80;;;3.67;;
65583;SDS011;73032;43.592;1.458;2023-12-20T03:00:53;5.80;;;3.35;;
65583;SDS011;73032;43.592;1.458;2023-12-20T03:03:20;5.80;;;3.28;;
65583;SDS011;73032;43.592;1.458;2023-12-20T03:05:47;5.60;;;3.40;;
65583;SDS011;73032;43.592;1.458;2023-12-20T03:08:14;4.93;;;3.33;;
65583;SDS011;73032;43.592;1.458;2023-12-20T03:10:40;5.45;;;2.95;;
65583;SDS011;73032;43.592;1.458;2023-12-20T03:13:07;5.45;;;3.05;;
65583;SDS011;73032;43.592;1.458;2023-12-20T03:15:34;4.18;;;2.55;;
65583;SDS011;73032;43.592;1.458;2023-12-20T03:18:01;4.93;;;2.97;;
65583;SDS011;73032;43.592;1.458;2023-12-20T03:20:28;7.35;;;3.78;;
65583;SDS011;73032;43.592;1.458;2023-12-20T03:22:54;5.40;;;3.20;;
65583;SDS011;73032;43.592;1.458;2023-12-20T03:25:21;6.35;;;3.33;;
65583;SDS011;73032;43.592;1.458;2023-12-20T03:27:48;6.05;;;3.50;;
65583;SDS011;73032;43.592;1.458;2023-12-20T03:30:15;6.75;;;3.85;;
65583;SDS011;73032;43.592;1.458;2023-12-20T03:32:41;7.53;;;3.95;;
65583;SDS011;73032;43.592;1.458;2023-12-20T03:35:08;6.80;;;4.07;;
65583;SDS011;73032;43.592;1.458;2023-12-20T03:37:35;6.72;;;4.07;;
65583;SDS011;73032;43.592;1.458;2023-12-20T03:40:02;6.47;;;4.18;;
65583;SDS011;73032;43.592;1.458;2023-12-20T03:42:30;6.35;;;4.05;;
65583;SDS011;73032;43.592;1.458;2023-12-20T03:44:56;7.07;;;4.20;;
65583;SDS011;73032;43.592;1.458;2023-12-20T03:47:23;7.35;;;4.28;;
65583;SDS011;73032;43.592;1.458;2023-12-20T03:49:49;6.63;;;4.07;;
65583;SDS011;73032;43.592;1.458;2023-12-20T03:52:16;6.28;;;3.60;;
65583;SDS011;73032;43.592;1.458;2023-12-20T03:54:43;7.05;;;3.80;;
65583;SDS011;73032;43.592;1.458;2023-12-20T03:57:10;6.43;;;3.85;;
65583;SDS011;73032;43.592;1.458;2023-12-20T03:59:37;7.03;;;3.78;;
65583;SDS011;73032;43.592;1.458;2023-12-20T04:02:04;6.80;;;3.83;;
65583;SDS011;73032;43.592;1.458;2023-12-20T04:04:31;7.15;;;4.30;;
65583;SDS011;73032;43.592;1.458;2023-12-20T04:06:58;6.30;;;4.20;;
65583;SDS011;73032;43.592;1.458;2023-12-20T04:09:24;5.63;;;3.85;;
65583;SDS011;73032;43.592;1.458;2023-12-20T04:11:51;5.10;;;3.42;;
65583;SDS011;73032;43.592;1.458;2023-12-20T04:14:18;5.60;;;3.63;;
65583;SDS011;73032;43.592;1.458;2023-12-20T04:16:44;6.45;;;3.55;;
65583;SDS011;73032;43.592;1.458;2023-12-20T04:19:13;6.45;;;4.13;;
65583;SDS011;73032;43.592;1.458;2023-12-20T04:21:40;6.32;;;3.83;;
65583;SDS011;73032;43.592;1.458;2023-12-20T04:24:07;5.57;;;3.47;;
65583;SDS011;73032;43.592;1.458;2023-12-20T04:26:34;6.53;;;4.05;;
65583;SDS011;73032;43.592;1.458;2023-12-20T04:29:01;6.63;;;3.63;;
65583;SDS011;73032;43.592;1.458;2023-12-20T04:31:28;5.00;;;3.10;;
65583;SDS011;73032;43.592;1.458;2023-12-20T04:33:54;7.13;;;3.95;;
65583;SDS011;73032;43.592;1.458;2023-12-20T04:36:21;4.93;;;3.05;;
65583;SDS011;73032;43.592;1.458;2023-12-20T04:38:48;5.93;;;3.60;;
65583;SDS011;73032;43.592;1.458;2023-12-20T04:41:15;7.25;;;3.83;;
65583;SDS011;73032;43.592;1.458;2023-12-20T04:43:42;6.80;;;3.85;;
65583;SDS011;73032;43.592;1.458;2023-12-20T04:46:09;6.38;;;4.05;;
65583;SDS011;73032;43.592;1.458;2023-12-20T04:48:36;4.20;;;3.17;;
65583;SDS011;73032;43.592;1.458;2023-12-20T04:51:03;6.75;;;3.85;;
65583;SDS011;73032;43.592;1.458;2023-12-20T04:53:29;5.50;;;3.42;;
65583;SDS011;73032;43.592;1.458;2023-12-20T04:55:56;6.82;;;4.03;;
65583;SDS011;73032;43.592;1.458;2023-12-20T04:58:24;4.95;;;3.38;;
65583;SDS011;73032;43.592;1.458;2023-12-20T05:00:50;6.78;;;3.90;;
65583;SDS011;73032;43.592;1.458;2023-12-20T05:03:17;5.70;;;3.72;;
65583;SDS011;73032;43.592;1.458;2023-12-20T05:05:44;5.30;;;3.67;;
65583;SDS011;73032;43.592;1.458;2023-12-20T05:08:10;8.55;;;3.33;;
65583;SDS011;73032;43.592;1.458;2023-12-20T05:10:37;6.88;;;3.40;;
65583;SDS011;73032;43.592;1.458;2023-12-20T05:13:04;4.63;;;2.90;;
65583;SDS011;73032;43.592;1.458;2023-12-20T05:15:31;5.20;;;2.80;;
65583;SDS011;73032;43.592;1.458;2023-12-20T05:17:58;6.63;;;3.25;;
65583;SDS011;73032;43.592;1.458;2023-12-20T05:20:24;4.35;;;2.63;;
65583;SDS011;73032;43.592;1.458;2023-12-20T05:22:51;6.80;;;2.55;;
65583;SDS011;73032;43.592;1.458;2023-12-20T05:25:18;3.70;;;2.38;;
65583;SDS011;73032;43.592;1.458;2023-12-20T05:27:45;4.53;;;2.35;;
65583;SDS011;73032;43.592;1.458;2023-12-20T05:30:12;4.20;;;1.95;;
65583;SDS011;73032;43.592;1.458;2023-12-20T05:32:40;4.18;;;1.85;;
65583;SDS011;73032;43.592;1.458;2023-12-20T05:35:07;2.78;;;1.88;;
65583;SDS011;73032;43.592;1.458;2023-12-20T05:37:34;3.80;;;1.70;;
65583;SDS011;73032;43.592;1.458;2023-12-20T05:40:00;2.33;;;1.50;;
65583;SDS011;73032;43.592;1.458;2023-12-20T05:42:27;2.38;;;1.58;;
65583;SDS011;73032;43.592;1.458;2023-12-20T05:44:54;2.15;;;1.38;;
65583;SDS011;73032;43.592;1.458;2023-12-20T05:47:24;2.67;;;1.42;;
65583;SDS011;73032;43.592;1.458;2023-12-20T05:49:50;2.13;;;1.50;;
65583;SDS011;73032;43.592;1.458;2023-12-20T05:52:17;2.03;;;1.38;;
65583;SDS011;73032;43.592;1.458;2023-12-20T05:54:44;2.20;;;1.30;;
65583;SDS011;73032;43.592;1.458;2023-12-20T05:57:11;1.90;;;1.00;;
65583;SDS011;73032;43.592;1.458;2023-12-20T05:59:38;2.22;;;1.15;;
65583;SDS011;73032;43.592;1.458;2023-12-20T06:02:04;1.42;;;1.05;;
65583;SDS011;73032;43.592;1.458;2023-12-20T06:04:31;1.58;;;1.00;;
65583;SDS011;73032;43.592;1.458;2023-12-20T06:06:59;2.00;;;1.00;;
65583;SDS011;73032;43.592;1.458;2023-12-20T06:09:28;0.95;;;0.73;;
65583;SDS011;73032;43.592;1.458;2023-12-20T06:11:57;1.67;;;1.10;;
65583;SDS011;73032;43.592;1.458;2023-12-20T06:14:24;2.30;;;1.30;;
65583;SDS011;73032;43.592;1.458;2023-12-20T06:16:51;1.60;;;1.08;;
65583;SDS011;73032;43.592;1.458;2023-12-20T06:19:17;1.58;;;1.17;;
65583;SDS011;73032;43.592;1.458;2023-12-20T06:21:44;1.33;;;0.90;;
65583;SDS011;73032;43.592;1.458;2023-12-20T06:24:11;1.45;;;1.00;;
65583;SDS011;73032;43.592;1.458;2023-12-20T06:26:38;1.48;;;0.93;;
65583;SDS011;73032;43.592;1.458;2023-12-20T06:29:05;1.50;;;1.10;;
65583;SDS011;73032;43.592;1.458;2023-12-20T06:31:31;1.67;;;0.82;;
65583;SDS011;73032;43.592;1.458;2023-12-20T06:33:59;1.55;;;1.05;;
65583;SDS011;73032;43.592;1.458;2023-12-20T06:36:26;1.67;;;1.00;;
65583;SDS011;73032;43.592;1.458;2023-12-20T06:38:53;2.00;;;0.95;;
65583;SDS011;73032;43.592;1.458;2023-12-20T06:41:20;1.65;;;0.90;;
65583;SDS011;73032;43.592;1.458;2023-12-20T06:43:47;1.90;;;1.00;;
65583;SDS011;73032;43.592;1.458;2023-12-20T06:46:16;1.20;;;0.80;;
65583;SDS011;73032;43.592;1.458;2023-12-20T06:48:43;1.27;;;0.88;;
65583;SDS011;73032;43.592;1.458;2023-12-20T06:51:12;1.20;;;0.75;;
65583;SDS011;73032;43.592;1.458;2023-12-20T06:53:42;1.58;;;1.00;;
65583;SDS011;73032;43.592;1.458;2023-12-20T06:56:09;1.27;;;0.82;;
65583;SDS011;73032;43.592;1.458;2023-12-20T06:58:39;1.52;;;1.00;;
65583;SDS011;73032;43.592;1.458;2023-12-20T07:01:10;0.88;;;0.70;;
65583;SDS011;73032;43.592;1.458;2023-12-20T07:03:38;1.30;;;0.77;;
65583;SDS011;73032;43.592;1.458;2023-12-20T07:06:05;1.58;;;0.90;;
65583;SDS011;73032;43.592;1.458;2023-12-20T07:08:32;1.45;;;0.70;;
65583;SDS011;73032;43.592;1.458;2023-12-20T07:10:59;1.10;;;0.60;;
65583;SDS011;73032;43.592;1.458;2023-12-20T07:13:26;0.77;;;0.55;;
65583;SDS011;73032;43.592;1.458;2023-12-20T07:15:52;2.08;;;0.60;;
65583;SDS011;73032;43.592;1.458;2023-12-20T07:18:19;1.92;;;0.82;;
65583;SDS011;73032;43.592;1.458;2023-12-20T07:20:46;1.15;;;0.75;;
65583;SDS011;73032;43.592;1.458;2023-12-20T07:23:13;1.33;;;0.70;;
65583;SDS011;73032;43.592;1.458;2023-12-20T07:25:40;0.98;;;0.75;;
65583;SDS011;73032;43.592;1.458;2023-12-20T07:28:06;1.02;;;0.70;;
65583;SDS011;73032;43.592;1.458;2023-12-20T07:30:33;1.10;;;0.77;;
65583;SDS011;73032;43.592;1.458;2023-12-20T07:33:00;0.98;;;0.77;;
65583;SDS011;73032;43.592;1.458;2023-12-20T07:35:27;0.95;;;0.75;;
65583;SDS011;73032;43.592;1.458;2023-12-20T07:37:54;1.67;;;0.88;;
65583;SDS011;73032;43.592;1.458;2023-12-20T07:40:21;0.88;;;0.70;;
65583;SDS011;73032;43.592;1.458;2023-12-20T07:42:47;1.48;;;0.80;;
65583;SDS011;73032;43.592;1.458;2023-12-20T07:45:14;1.23;;;0.90;;
65583;SDS011;73032;43.592;1.458;2023-12-20T07:47:41;1.30;;;0.95;;
65583;SDS011;73032;43.592;1.458;2023-12-20T07:50:10;1.65;;;0.95;;
65583;SDS011;73032;43.592;1.458;2023-12-20T07:52:37;1.55;;;0.90;;
65583;SDS011;73032;43.592;1.458;2023-12-20T07:55:03;1.13;;;0.82;;
65583;SDS011;73032;43.592;1.458;2023-12-20T07:57:31;1.10;;;0.82;;
65583;SDS011;73032;43.592;1.458;2023-12-20T08:00:00;1.40;;;0.90;;
65583;SDS011;73032;43.592;1.458;2023-12-20T08:02:27;2.47;;;0.82;;
65583;SDS011;73032;43.592;1.458;2023-12-20T08:04:54;1.10;;;0.80;;
65583;SDS011;73032;43.592;1.458;2023-12-20T08:07:20;1.02;;;0.70;;
65583;SDS011;73032;43.592;1.458;2023-12-20T08:09:47;1.17;;;0.77;;
65583;SDS011;73032;43.592;1.458;2023-12-20T08:12:14;1.23;;;0.90;;
65583;SDS011;73032;43.592;1.458;2023-12-20T08:14:43;1.25;;;0.85;;
65583;SDS011;73032;43.592;1.458;2023-12-20T08:17:09;1.10;;;0.90;;
65583;SDS011;73032;43.592;1.458;2023-12-20T08:19:36;1.13;;;0.82;;
65583;SDS011;73032;43.592;1.458;2023-12-20T08:22:03;2.25;;;0.90;;
65583;SDS011;73032;43.592;1.458;2023-12-20T08:24:30;1.25;;;0.85;;
65583;SDS011;73032;43.592;1.458;2023-12-20T08:26:56;1.08;;;0.77;;
65583;SDS011;73032;43.592;1.458;2023-12-20T08:29:23;0.95;;;0.70;;
65583;SDS011;73032;43.592;1.458;2023-12-20T08:31:53;2.25;;;0.80;;
65583;SDS011;73032;43.592;1.458;2023-12-20T08:34:23;1.38;;;0.95;;
65583;SDS011;73032;43.592;1.458;2023-12-20T08:36:52;1.65;;;0.90;;
65583;SDS011;73032;43.592;1.458;2023-12-20T08:39:19;1.10;;;0.85;;
65583;SDS011;73032;43.592;1.458;2023-12-20T08:41:46;0.95;;;0.70;;
65583;SDS011;73032;43.592;1.458;2023-12-20T08:44:13;1.05;;;0.75;;
65583;SDS011;73032;43.592;1.458;2023-12-20T08:46:40;1.65;;;0.95;;
65583;SDS011;73032;43.592;1.458;2023-12-20T08:49:06;1.55;;;0.82;;
65583;SDS011;73032;43.592;1.458;2023-12-20T08:51:35;1.60;;;1.10;;
65583;SDS011;73032;43.592;1.458;2023-12-20T08:54:01;1.73;;;0.95;;
65583;SDS011;73032;43.592;1.458;2023-12-20T08:56:28;3.13;;;1.17;;
65583;SDS011;73032;43.592;1.458;2023-12-20T08:58:55;1.73;;;1.10;;
65583;SDS011;73032;43.592;1.458;2023-12-20T09:01:22;2.08;;;1.10;;
65583;SDS011;73032;43.592;1.458;2023-12-20T09:03:48;1.95;;;1.17;;
65583;SDS011;73032;43.592;1.458;2023-12-20T09:06:15;1.30;;;1.02;;
65583;SDS011;73032;43.592;1.458;2023-12-20T09:08:42;4.18;;;1.17;;
65583;SDS011;73032;43.592;1.458;2023-12-20T09:11:09;1.85;;;1.10;;
65583;SDS011;73032;43.592;1.458;2023-12-20T09:13:37;1.67;;;1.10;;
65583;SDS011;73032;43.592;1.458;2023-12-20T09:16:04;1.63;;;1.10;;
65583;SDS011;73032;43.592;1.458;2023-12-20T09:18:31;2.00;;;1.17;;
65583;SDS011;73032;43.592;1.458;2023-12-20T09:20:57;1.83;;;1.20;;
65583;SDS011;73032;43.592;1.458;2023-12-20T09:23:24;1.70;;;1.13;;
65583;SDS011;73032;43.592;1.458;2023-12-20T09:25:51;2.28;;;1.30;;
65583;SDS011;73032;43.592;1.458;2023-12-20T09:28:22;4.18;;;1.17;;
65583;SDS011;73032;43.592;1.458;2023-12-20T09:30:48;2.42;;;1.13;;
65583;SDS011;73032;43.592;1.458;2023-12-20T09:33:15;2.35;;;1.30;;
65583;SDS011;73032;43.592;1.458;2023-12-20T09:35:42;1.45;;;1.13;;
65583;SDS011;73032;43.592;1.458;2023-12-20T09:38:10;1.45;;;1.08;;
65583;SDS011;73032;43.592;1.458;2023-12-20T09:40:38;1.98;;;1.10;;
65583;SDS011;73032;43.592;1.458;2023-12-20T09:43:11;1.80;;;1.00;;
65583;SDS011;73032;43.592;1.458;2023-12-20T09:45:42;2.20;;;0.90;;
65583;SDS011;73032;43.592;1.458;2023-12-20T09:48:12;2.67;;;1.00;;
65583;SDS011;73032;43.592;1.458;2023-12-20T09:50:41;1.05;;;0.75;;
65583;SDS011;73032;43.592;1.458;2023-12-20T09:53:14;3.05;;;1.00;;
65583;SDS011;73032;43.592;1.458;2023-12-20T09:55:44;1.52;;;0.80;;
65583;SDS011;73032;43.592;1.458;2023-12-20T09:58:11;1.45;;;0.70;;
65583;SDS011;73032;43.592;1.458;2023-12-20T10:00:41;1.40;;;0.63;;
65583;SDS011;73032;43.592;1.458;2023-12-20T10:03:10;1.35;;;0.68;;
65583;SDS011;73032;43.592;1.458;2023-12-20T10:05:41;1.30;;;0.75;;
65583;SDS011;73032;43.592;1.458;2023-12-20T10:08:15;1.48;;;0.77;;
65583;SDS011;73032;43.592;1.458;2023-12-20T10:10:42;0.77;;;0.45;;
65583;SDS011;73032;43.592;1.458;2023-12-20T10:13:14;2.65;;;0.85;;
65583;SDS011;73032;43.592;1.458;2023-12-20T10:15:41;2.13;;;0.90;;
65583;SDS011;73032;43.592;1.458;2023-12-20T10:18:09;1.73;;;0.90;;
65583;SDS011;73032;43.592;1.458;2023-12-20T10:20:37;3.97;;;0.90;;
65583;SDS011;73032;43.592;1.458;2023-12-20T10:23:04;1.65;;;1.00;;
65583;SDS011;73032;43.592;1.458;2023-12-20T10:25:30;1.70;;;0.90;;
65583;SDS011;73032;43.592;1.458;2023-12-20T10:28:08;2.50;;;0.88;;
65583;SDS011;73032;43.592;1.458;2023-12-20T10:30:35;1.38;;;0.88;;
65583;SDS011;73032;43.592;1.458;2023-12-20T10:33:02;1.83;;;0.65;;
65583;SDS011;73032;43.592;1.458;2023-12-20T10:35:31;1.88;;;0.85;;
65583;SDS011;73032;43.592;1.458;2023-12-20T10:37:58;1.98;;;0.80;;
65583;SDS011;73032;43.592;1.458;2023-12-20T10:40:31;2.28;;;0.88;;
65583;SDS011;73032;43.592;1.458;2023-12-20T10:43:01;1.75;;;0.80;;
65583;SDS011;73032;43.592;1.458;2023-12-20T10:45:29;0.73;;;0.60;;
65583;SDS011;73032;43.592;1.458;2023-12-20T10:47:56;2.22;;;0.90;;
65583;SDS011;73032;43.592;1.458;2023-12-20T10:50:26;2.40;;;0.80;;
65583;SDS011;73032;43.592;1.458;2023-12-20T10:52:54;1.50;;;0.65;;
65583;SDS011;73032;43.592;1.458;2023-12-20T10:55:22;4.45;;;0.88;;
65583;SDS011;73032;43.592;1.458;2023-12-20T10:58:11;1.50;;;0.70;;
65583;SDS011;73032;43.592;1.458;2023-12-20T11:00:39;0.90;;;0.60;;
65583;SDS011;73032;43.592;1.458;2023-12-20T11:03:10;2.92;;;0.80;;
65583;SDS011;73032;43.592;1.458;2023-12-20T11:05:42;2.70;;;0.70;;
65583;SDS011;73032;43.592;1.458;2023-12-20T11:08:20;1.88;;;0.70;;
65583;SDS011;73032;43.592;1.458;2023-12-20T11:13:31;1.40;;;0.68;;
65583;SDS011;73032;43.592;1.458;2023-12-20T11:18:29;1.45;;;0.70;;
65583;SDS011;73032;43.592;1.458;2023-12-20T11:21:15;1.10;;;0.57;;
65583;SDS011;73032;43.592;1.458;2023-12-20T11:23:42;3.10;;;0.70;;
65583;SDS011;73032;43.592;1.458;2023-12-20T11:26:09;1.27;;;0.70;;
65583;SDS011;73032;43.592;1.458;2023-12-20T11:28:36;4.60;;;0.80;;
65583;SDS011;73032;43.592;1.458;2023-12-20T11:31:02;1.08;;;0.60;;
65583;SDS011;73032;43.592;1.458;2023-12-20T11:33:36;1.08;;;0.50;;
65583;SDS011;73032;43.592;1.458;2023-12-20T11:36:06;0.82;;;0.50;;
65583;SDS011;73032;43.592;1.458;2023-12-20T11:38:49;2.70;;;0.88;;
65583;SDS011;73032;43.592;1.458;2023-12-20T11:41:26;1.88;;;0.82;;
65583;SDS011;73032;43.592;1.458;2023-12-20T11:43:53;3.00;;;0.90;;
65583;SDS011;73032;43.592;1.458;2023-12-20T11:46:21;2.80;;;0.70;;
65583;SDS011;73032;43.592;1.458;2023-12-20T11:48:48;2.80;;;0.80;;
65583;SDS011;73032;43.592;1.458;2023-12-20T11:51:15;1.90;;;0.70;;
65583;SDS011;73032;43.592;1.458;2023-12-20T11:53:42;1.13;;;0.60;;
65583;SDS011;73032;43.592;1.458;2023-12-20T11:56:09;2.88;;;0.68;;
65583;SDS011;73032;43.592;1.458;2023-12-20T11:58:36;3.22;;;0.80;;
65583;SDS011;73032;43.592;1.458;2023-12-20T12:01:03;0.80;;;0.50;;
65583;SDS011;73032;43.592;1.458;2023-12-20T12:03:34;0.68;;;0.40;;
65583;SDS011;73032;43.592;1.458;2023-12-20T12:06:01;1.50;;;0.68;;
65583;SDS011;73032;43.592;1.458;2023-12-20T12:08:31;7.72;;;1.05;;
65583;SDS011;73032;43.592;1.458;2023-12-20T12:10:58;2.25;;;0.75;;
65583;SDS011;73032;43.592;1.458;2023-12-20T12:13:24;2.38;;;0.80;;
65583;SDS011;73032;43.592;1.458;2023-12-20T12:15:54;1.55;;;0.50;;
65583;SDS011;73032;43.592;1.458;2023-12-20T12:18:20;1.90;;;0.47;;
65583;SDS011;73032;43.592;1.458;2023-12-20T12:20:48;3.00;;;0.60;;
65583;SDS011;73032;43.592;1.458;2023-12-20T12:23:15;3.78;;;0.70;;
65583;SDS011;73032;43.592;1.458;2023-12-20T12:25:49;4.80;;;0.60;;
65583;SDS011;73032;43.592;1.458;2023-12-20T12:28:16;1.98;;;0.47;;
65583;SDS011;73032;43.592;1.458;2023-12-20T12:30:55;2.10;;;0.52;;
65583;SDS011;73032;43.592;1.458;2023-12-20T12:33:23;3.88;;;0.60;;
65583;SDS011;73032;43.592;1.458;2023-12-20T12:35:54;2.55;;;0.63;;
65583;SDS011;73032;43.592;1.458;2023-12-20T12:38:21;2.17;;;0.50;;
65583;SDS011;73032;43.592;1.458;2023-12-20T12:40:49;2.17;;;0.40;;
65583;SDS011;73032;43.592;1.458;2023-12-20T12:43:16;1.30;;;0.60;;
65583;SDS011;73032;43.592;1.458;2023-12-20T12:45:43;1.63;;;0.50;;
65583;SDS011;73032;43.592;1.458;2023-12-20T12:48:10;1.58;;;0.57;;
65583;SDS011;73032;43.592;1.458;2023-12-20T12:50:37;3.60;;;0.70;;
65583;SDS011;73032;43.592;1.458;2023-12-20T12:53:03;2.22;;;0.70;;
65583;SDS011;73032;43.592;1.458;2023-12-20T12:55:30;4.53;;;0.70;;
65583;SDS011;73032;43.592;1.458;2023-12-20T12:57:57;3.60;;;0.85;;
65583;SDS011;73032;43.592;1.458;2023-12-20T13:00:24;2.65;;;0.70;;
65583;SDS011;73032;43.592;1.458;2023-12-20T13:02:52;0.80;;;0.60;;
65583;SDS011;73032;43.592;1.458;2023-12-20T13:05:21;2.05;;;0.60;;
65583;SDS011;73032;43.592;1.458;2023-12-20T13:07:48;2.10;;;0.60;;
65583;SDS011;73032;43.592;1.458;2023-12-20T13:10:15;1.45;;;0.50;;
65583;SDS011;73032;43.592;1.458;2023-12-20T13:12:45;1.83;;;0.50;;
65583;SDS011;73032;43.592;1.458;2023-12-20T13:15:12;2.72;;;0.70;;
65583;SDS011;73032;43.592;1.458;2023-12-20T13:17:39;1.40;;;0.52;;
65583;SDS011;73032;43.592;1.458;2023-12-20T13:20:06;2.20;;;0.43;;
65583;SDS011;73032;43.592;1.458;2023-12-20T13:22:34;1.90;;;0.60;;
65583;SDS011;73032;43.592;1.458;2023-12-20T13:25:00;2.35;;;0.63;;
65583;SDS011;73032;43.592;1.458;2023-12-20T13:27:29;3.50;;;0.70;;
65583;SDS011;73032;43.592;1.458;2023-12-20T13:29:57;3.83;;;0.70;;
65583;SDS011;73032;43.592;1.458;2023-12-20T13:32:24;2.75;;;0.70;;
65583;SDS011;73032;43.592;1.458;2023-12-20T13:34:51;2.05;;;0.65;;
65583;SDS011;73032;43.592;1.458;2023-12-20T13:37:21;3.20;;;0.70;;
65583;SDS011;73032;43.592;1.458;2023-12-20T13:39:47;2.45;;;0.65;;
65583;SDS011;73032;43.592;1.458;2023-12-20T13:42:15;3.50;;;0.80;;
65583;SDS011;73032;43.592;1.458;2023-12-20T13:44:41;4.05;;;0.70;;
65583;SDS011;73032;43.592;1.458;2023-12-20T13:47:08;1.75;;;0.50;;
65583;SDS011;73032;43.592;1.458;2023-12-20T13:49:35;2.15;;;0.70;;
65583;SDS011;73032;43.592;1.458;2023-12-20T13:52:02;1.40;;;0.60;;
65583;SDS011;73032;43.592;1.458;2023-12-20T13:54:30;3.33;;;1.08;;
65583;SDS011;73032;43.592;1.458;2023-12-20T13:56:57;5.32;;;1.10;;
65583;SDS011;73032;43.592;1.458;2023-12-20T13:59:37;2.97;;;0.70;;
65583;SDS011;73032;43.592;1.458;2023-12-20T14:02:04;2.97;;;0.70;;
65583;SDS011;73032;43.592;1.458;2023-12-20T14:04:31;3.33;;;0.88;;
65583;SDS011;73032;43.592;1.458;2023-12-20T14:07:08;4.32;;;0.90;;
65583;SDS011;73032;43.592;1.458;2023-12-20T14:09:38;1.85;;;0.63;;
65583;SDS011;73032;43.592;1.458;2023-12-20T14:12:05;3.05;;;0.82;;
65583;SDS011;73032;43.592;1.458;2023-12-20T14:14:32;5.95;;;1.20;;
65583;SDS011;73032;43.592;1.458;2023-12-20T14:16:58;2.85;;;0.90;;
65583;SDS011;73032;43.592;1.458;2023-12-20T14:19:25;3.28;;;0.90;;
65583;SDS011;73032;43.592;1.458;2023-12-20T14:21:52;1.98;;;0.63;;
65583;SDS011;73032;43.592;1.458;2023-12-20T14:24:19;4.70;;;1.23;;
65583;SDS011;73032;43.592;1.458;2023-12-20T14:26:45;2.78;;;0.80;;
65583;SDS011;73032;43.592;1.458;2023-12-20T14:29:12;2.80;;;0.73;;
65583;SDS011;73032;43.592;1.458;2023-12-20T14:31:39;3.17;;;0.70;;
65583;SDS011;73032;43.592;1.458;2023-12-20T14:34:07;5.82;;;0.80;;
65583;SDS011;73032;43.592;1.458;2023-12-20T14:36:35;1.67;;;0.70;;
65583;SDS011;73032;43.592;1.458;2023-12-20T14:39:01;2.33;;;0.52;;
65583;SDS011;73032;43.592;1.458;2023-12-20T14:41:30;2.20;;;0.70;;
65583;SDS011;73032;43.592;1.458;2023-12-20T14:43:58;2.05;;;0.50;;
65583;SDS011;73032;43.592;1.458;2023-12-20T14:46:27;1.75;;;0.50;;
65583;SDS011;73032;43.592;1.458;2023-12-20T14:48:55;5.15;;;0.80;;
65583;SDS011;73032;43.592;1.458;2023-12-20T14:51:22;1.30;;;0.50;;
65583;SDS011;73032;43.592;1.458;2023-12-20T14:53:51;1.75;;;0.60;;
65583;SDS011;73032;43.592;1.458;2023-12-20T14:56:18;4.53;;;0.70;;